sensor_id;sensor_type;location;lat;lon;timestamp;P1;durP1;ratioP1;P2;durP2;ratioP2
33862;SDS011;20158;51.436;-2.742;2024-03-06T00:00:01;7.30;;;5.15;;
33862;SDS011;20158;51.436;-2.742;2024-03-06T00:02:48;9.05;;;5.47;;
33862;SDS011;20158;51.436;-2.742;2024-03-06T00:05:33;8.75;;;5.82;;
33862;SDS011;20158;51.436;-2.742;2024-03-06T00:08:18;8.32;;;5.50;;
33862;SDS011;20158;51.436;-2.742;2024-03-06T00:11:02;9.30;;;4.95;;
33862;SDS011;20158;51.436;-2.742;2024-03-06T00:13:48;7.10;;;4.88;;
33862;SDS011;20158;51.436;-2.742;2024-03-06T00:16:32;9.68;;;4.75;;
33862;SDS011;20158;51.436;-2.742;2024-03-06T00:19:18;7.68;;;4.70;;
33862;SDS011;20158;51.436;-2.742;2024-03-06T00:22:03;10.43;;;5.28;;
33862;SDS011;20158;51.436;-2.742;2024-03-06T00:24:48;9.30;;;5.50;;
33862;SDS011;20158;51.436;-2.742;2024-03-06T00:27:33;9.07;;;6.15;;
33862;SDS011;20158;51.436;-2.742;2024-03-06T00:30:18;8.63;;;5.57;;
33862;SDS011;20158;51.436;-2.742;2024-03-06T00:33:02;10.70;;;4.55;;
33862;SDS011;20158;51.436;-2.742;2024-03-06T00:35:48;10.65;;;5.43;;
33862;SDS011;20158;51.436;-2.742;2024-03-06T00:38:33;8.85;;;4.72;;
33862;SDS011;20158;51.436;-2.742;2024-03-06T00:41:17;8.15;;;4.70;;
33862;SDS011;20158;51.436;-2.742;2024-03-06T00:44:02;6.70;;;5.20;;
33862;SDS011;20158;51.436;-2.742;2024-03-06T00:46:48;8.95;;;5.57;;
33862;SDS011;20158;51.436;-2.742;2024-03-06T00:49:32;9.63;;;5.18;;
33862;SDS011;20158;51.436;-2.742;2024-03-06T00:52:17;9.02;;;4.78;;
33862;SDS011;20158;51.436;-2.742;2024-03-06T00:55:01;13.02;;;5.60;;
33862;SDS011;20158;51.436;-2.742;2024-03-06T00:57:45;6.80;;;4.82;;
33862;SDS011;20158;51.436;-2.742;2024-03-06T01:00:30;9.10;;;5.47;;
33862;SDS011;20158;51.436;-2.742;2024-03-06T01:03:14;9.68;;;6.15;;
33862;SDS011;20158;51.436;-2.742;2024-03-06T01:05:58;8.93;;;6.03;;
33862;SDS011;20158;51.436;-2.742;2024-03-06T01:08:43;7.47;;;5.03;;
33862;SDS011;20158;51.436;-2.742;2024-03-06T01:11:28;12.00;;;5.00;;
33862;SDS011;20158;51.436;-2.742;2024-03-06T01:14:13;11.07;;;5.63;;
33862;SDS011;20158;51.436;-2.742;2024-03-06T01:16:58;7.63;;;5.22;;
33862;SDS011;20158;51.436;-2.742;2024-03-06T01:19:42;10.60;;;5.55;;
33862;SDS011;20158;51.436;-2.742;2024-03-06T01:22:26;7.07;;;5.50;;
33862;SDS011;20158;51.436;-2.742;2024-03-06T01:25:11;8.60;;;5.05;;
33862;SDS011;20158;51.436;-2.742;2024-03-06T01:27:56;9.23;;;5.05;;
33862;SDS011;20158;51.436;-2.742;2024-03-06T01:30:40;8.02;;;4.60;;
33862;SDS011;20158;51.436;-2.742;2024-03-06T01:33:24;7.60;;;5.07;;
33862;SDS011;20158;51.436;-2.742;2024-03-06T01:36:09;8.60;;;4.93;;
33862;SDS011;20158;51.436;-2.742;2024-03-06T01:38:54;7.32;;;4.18;;
33862;SDS011;20158;51.436;-2.742;2024-03-06T01:41:46;9.73;;;4.78;;
33862;SDS011;20158;51.436;-2.742;2024-03-06T01:44:30;8.93;;;4.72;;
33862;SDS011;20158;51.436;-2.742;2024-03-06T01:47:15;6.20;;;4.20;;
33862;SDS011;20158;51.436;-2.742;2024-03-06T01:50:00;5.80;;;4.53;;
33862;SDS011;20158;51.436;-2.742;2024-03-06T01:52:45;11.77;;;4.60;;
33862;SDS011;20158;51.436;-2.742;2024-03-06T01:55:31;6.57;;;4.55;;
33862;SDS011;20158;51.436;-2.742;2024-03-06T01:58:16;8.85;;;4.78;;
33862;SDS011;20158;51.436;-2.742;2024-03-06T02:01:01;8.20;;;4.05;;
33862;SDS011;20158;51.436;-2.742;2024-03-06T02:03:47;7.07;;;4.07;;
33862;SDS011;20158;51.436;-2.742;2024-03-06T02:06:31;8.60;;;4.10;;
33862;SDS011;20158;51.436;-2.742;2024-03-06T02:09:16;9.63;;;4.13;;
33862;SDS011;20158;51.436;-2.742;2024-03-06T02:12:00;7.95;;;4.22;;
33862;SDS011;20158;51.436;-2.742;2024-03-06T02:14:45;10.35;;;4.80;;
33862;SDS011;20158;51.436;-2.742;2024-03-06T02:17:30;6.40;;;3.83;;
33862;SDS011;20158;51.436;-2.742;2024-03-06T02:20:15;8.27;;;4.10;;
33862;SDS011;20158;51.436;-2.742;2024-03-06T02:23:00;7.45;;;4.30;;
33862;SDS011;20158;51.436;-2.742;2024-03-06T02:25:45;6.50;;;3.78;;
33862;SDS011;20158;51.436;-2.742;2024-03-06T02:28:31;7.57;;;3.63;;
33862;SDS011;20158;51.436;-2.742;2024-03-06T02:31:19;7.88;;;4.47;;
33862;SDS011;20158;51.436;-2.742;2024-03-06T02:34:04;7.63;;;4.28;;
33862;SDS011;20158;51.436;-2.742;2024-03-06T02:36:53;7.57;;;4.57;;
33862;SDS011;20158;51.436;-2.742;2024-03-06T02:39:40;10.80;;;4.50;;
33862;SDS011;20158;51.436;-2.742;2024-03-06T02:42:24;9.75;;;4.28;;
33862;SDS011;20158;51.436;-2.742;2024-03-06T02:45:10;9.57;;;4.75;;
33862;SDS011;20158;51.436;-2.742;2024-03-06T02:47:54;9.73;;;4.53;;
33862;SDS011;20158;51.436;-2.742;2024-03-06T02:50:38;8.77;;;3.75;;
33862;SDS011;20158;51.436;-2.742;2024-03-06T02:53:23;10.75;;;5.22;;
33862;SDS011;20158;51.436;-2.742;2024-03-06T02:56:07;7.15;;;4.18;;
33862;SDS011;20158;51.436;-2.742;2024-03-06T02:58:52;9.10;;;4.07;;
33862;SDS011;20158;51.436;-2.742;2024-03-06T03:01:37;7.70;;;3.50;;
33862;SDS011;20158;51.436;-2.742;2024-03-06T03:04:22;9.25;;;4.45;;
33862;SDS011;20158;51.436;-2.742;2024-03-06T03:07:07;5.80;;;3.83;;
33862;SDS011;20158;51.436;-2.742;2024-03-06T03:09:52;6.90;;;4.10;;
33862;SDS011;20158;51.436;-2.742;2024-03-06T03:12:38;11.82;;;3.85;;
33862;SDS011;20158;51.436;-2.742;2024-03-06T03:15:23;8.98;;;4.22;;
33862;SDS011;20158;51.436;-2.742;2024-03-06T03:18:08;9.15;;;4.35;;
33862;SDS011;20158;51.436;-2.742;2024-03-06T03:20:52;8.77;;;3.80;;
33862;SDS011;20158;51.436;-2.742;2024-03-06T03:23:36;9.65;;;4.50;;
33862;SDS011;20158;51.436;-2.742;2024-03-06T03:26:21;12.63;;;4.03;;
33862;SDS011;20158;51.436;-2.742;2024-03-06T03:29:06;9.02;;;3.90;;
33862;SDS011;20158;51.436;-2.742;2024-03-06T03:31:50;9.93;;;4.55;;
33862;SDS011;20158;51.436;-2.742;2024-03-06T03:34:35;7.85;;;4.03;;
33862;SDS011;20158;51.436;-2.742;2024-03-06T03:37:19;6.28;;;3.58;;
33862;SDS011;20158;51.436;-2.742;2024-03-06T03:40:05;7.85;;;4.28;;
33862;SDS011;20158;51.436;-2.742;2024-03-06T03:42:50;11.07;;;4.78;;
33862;SDS011;20158;51.436;-2.742;2024-03-06T03:45:35;10.77;;;4.15;;
33862;SDS011;20158;51.436;-2.742;2024-03-06T03:48:19;7.65;;;3.30;;
33862;SDS011;20158;51.436;-2.742;2024-03-06T03:51:04;8.65;;;4.35;;
33862;SDS011;20158;51.436;-2.742;2024-03-06T03:53:49;8.25;;;3.95;;
33862;SDS011;20158;51.436;-2.742;2024-03-06T03:56:36;8.40;;;3.97;;
33862;SDS011;20158;51.436;-2.742;2024-03-06T03:59:21;10.35;;;4.95;;
33862;SDS011;20158;51.436;-2.742;2024-03-06T04:02:05;7.30;;;3.53;;
33862;SDS011;20158;51.436;-2.742;2024-03-06T04:04:50;10.45;;;3.78;;
33862;SDS011;20158;51.436;-2.742;2024-03-06T04:07:35;10.27;;;4.22;;
33862;SDS011;20158;51.436;-2.742;2024-03-06T04:10:19;9.15;;;3.60;;
33862;SDS011;20158;51.436;-2.742;2024-03-06T04:13:04;6.53;;;3.50;;
33862;SDS011;20158;51.436;-2.742;2024-03-06T04:15:49;8.25;;;3.55;;
33862;SDS011;20158;51.436;-2.742;2024-03-06T04:18:33;8.25;;;3.88;;
33862;SDS011;20158;51.436;-2.742;2024-03-06T04:21:18;7.28;;;3.50;;
33862;SDS011;20158;51.436;-2.742;2024-03-06T04:24:03;7.30;;;3.25;;
33862;SDS011;20158;51.436;-2.742;2024-03-06T04:26:47;6.60;;;3.60;;
33862;SDS011;20158;51.436;-2.742;2024-03-06T04:29:31;6.55;;;3.65;;
33862;SDS011;20158;51.436;-2.742;2024-03-06T04:32:16;9.38;;;3.90;;
33862;SDS011;20158;51.436;-2.742;2024-03-06T04:35:00;8.40;;;3.70;;
33862;SDS011;20158;51.436;-2.742;2024-03-06T04:37:45;9.68;;;4.07;;
33862;SDS011;20158;51.436;-2.742;2024-03-06T04:40:30;8.75;;;3.70;;
33862;SDS011;20158;51.436;-2.742;2024-03-06T04:43:14;8.35;;;3.65;;
33862;SDS011;20158;51.436;-2.742;2024-03-06T04:45:59;9.02;;;3.63;;
33862;SDS011;20158;51.436;-2.742;2024-03-06T04:48:43;6.43;;;3.10;;
33862;SDS011;20158;51.436;-2.742;2024-03-06T04:51:30;6.35;;;3.63;;
33862;SDS011;20158;51.436;-2.742;2024-03-06T04:54:14;8.45;;;3.63;;
33862;SDS011;20158;51.436;-2.742;2024-03-06T04:56:59;8.52;;;3.50;;
33862;SDS011;20158;51.436;-2.742;2024-03-06T04:59:43;6.57;;;3.88;;
33862;SDS011;20158;51.436;-2.742;2024-03-06T05:02:28;3.72;;;2.97;;
33862;SDS011;20158;51.436;-2.742;2024-03-06T05:05:13;6.53;;;3.25;;
33862;SDS011;20158;51.436;-2.742;2024-03-06T05:07:58;6.10;;;3.35;;
33862;SDS011;20158;51.436;-2.742;2024-03-06T05:10:42;9.65;;;3.80;;
33862;SDS011;20158;51.436;-2.742;2024-03-06T05:13:26;6.38;;;3.17;;
33862;SDS011;20158;51.436;-2.742;2024-03-06T05:16:11;9.02;;;4.43;;
33862;SDS011;20158;51.436;-2.742;2024-03-06T05:18:55;6.72;;;3.60;;
33862;SDS011;20158;51.436;-2.742;2024-03-06T05:21:40;9.88;;;3.40;;
33862;SDS011;20158;51.436;-2.742;2024-03-06T05:24:24;7.60;;;3.58;;
33862;SDS011;20158;51.436;-2.742;2024-03-06T05:27:09;10.27;;;3.90;;
33862;SDS011;20158;51.436;-2.742;2024-03-06T05:29:53;7.50;;;3.50;;
33862;SDS011;20158;51.436;-2.742;2024-03-06T05:32:38;6.82;;;3.40;;
33862;SDS011;20158;51.436;-2.742;2024-03-06T05:35:23;5.63;;;3.30;;
33862;SDS011;20158;51.436;-2.742;2024-03-06T05:38:07;5.75;;;3.33;;
33862;SDS011;20158;51.436;-2.742;2024-03-06T05:40:52;3.85;;;3.20;;
33862;SDS011;20158;51.436;-2.742;2024-03-06T05:43:37;5.72;;;3.45;;
33862;SDS011;20158;51.436;-2.742;2024-03-06T05:46:21;8.65;;;3.17;;
33862;SDS011;20158;51.436;-2.742;2024-03-06T05:49:06;6.57;;;3.40;;
33862;SDS011;20158;51.436;-2.742;2024-03-06T05:51:51;5.22;;;3.17;;
33862;SDS011;20158;51.436;-2.742;2024-03-06T05:54:36;10.25;;;3.50;;
33862;SDS011;20158;51.436;-2.742;2024-03-06T05:57:21;5.75;;;3.35;;
33862;SDS011;20158;51.436;-2.742;2024-03-06T06:00:05;3.92;;;3.15;;
33862;SDS011;20158;51.436;-2.742;2024-03-06T06:02:55;8.93;;;3.75;;
33862;SDS011;20158;51.436;-2.742;2024-03-06T06:05:40;5.95;;;3.25;;
33862;SDS011;20158;51.436;-2.742;2024-03-06T06:08:24;6.95;;;3.35;;
33862;SDS011;20158;51.436;-2.742;2024-03-06T06:11:09;8.88;;;3.28;;
33862;SDS011;20158;51.436;-2.742;2024-03-06T06:13:54;8.27;;;3.88;;
33862;SDS011;20158;51.436;-2.742;2024-03-06T06:16:39;6.45;;;3.40;;
33862;SDS011;20158;51.436;-2.742;2024-03-06T06:19:26;8.85;;;3.58;;
33862;SDS011;20158;51.436;-2.742;2024-03-06T06:22:11;7.68;;;3.80;;
33862;SDS011;20158;51.436;-2.742;2024-03-06T06:24:56;7.90;;;3.38;;
33862;SDS011;20158;51.436;-2.742;2024-03-06T06:27:41;9.48;;;3.78;;
33862;SDS011;20158;51.436;-2.742;2024-03-06T06:30:25;8.10;;;4.10;;
33862;SDS011;20158;51.436;-2.742;2024-03-06T06:33:10;9.18;;;4.03;;
33862;SDS011;20158;51.436;-2.742;2024-03-06T06:35:54;8.80;;;4.07;;
33862;SDS011;20158;51.436;-2.742;2024-03-06T06:38:39;9.40;;;5.00;;
33862;SDS011;20158;51.436;-2.742;2024-03-06T06:41:23;10.90;;;4.70;;
33862;SDS011;20158;51.436;-2.742;2024-03-06T06:44:08;6.10;;;2.78;;
33862;SDS011;20158;51.436;-2.742;2024-03-06T06:46:52;72.07;;;13.35;;
33862;SDS011;20158;51.436;-2.742;2024-03-06T06:49:36;68.20;;;16.15;;
33862;SDS011;20158;51.436;-2.742;2024-03-06T06:52:20;36.47;;;10.93;;
33862;SDS011;20158;51.436;-2.742;2024-03-06T06:55:05;36.50;;;10.38;;
33862;SDS011;20158;51.436;-2.742;2024-03-06T06:57:50;25.75;;;7.68;;
33862;SDS011;20158;51.436;-2.742;2024-03-06T07:00:34;34.35;;;8.85;;
33862;SDS011;20158;51.436;-2.742;2024-03-06T07:03:21;27.92;;;8.13;;
33862;SDS011;20158;51.436;-2.742;2024-03-06T07:06:06;23.17;;;7.85;;
33862;SDS011;20158;51.436;-2.742;2024-03-06T07:08:51;30.30;;;7.57;;
33862;SDS011;20158;51.436;-2.742;2024-03-06T07:11:36;20.15;;;6.63;;
33862;SDS011;20158;51.436;-2.742;2024-03-06T07:14:20;20.38;;;8.57;;
33862;SDS011;20158;51.436;-2.742;2024-03-06T07:17:04;20.23;;;6.72;;
33862;SDS011;20158;51.436;-2.742;2024-03-06T07:19:49;16.35;;;6.38;;
33862;SDS011;20158;51.436;-2.742;2024-03-06T07:22:35;13.18;;;6.32;;
33862;SDS011;20158;51.436;-2.742;2024-03-06T07:25:19;14.90;;;7.03;;
33862;SDS011;20158;51.436;-2.742;2024-03-06T07:28:04;13.70;;;7.25;;
33862;SDS011;20158;51.436;-2.742;2024-03-06T07:30:49;15.00;;;6.32;;
33862;SDS011;20158;51.436;-2.742;2024-03-06T07:33:33;13.75;;;6.57;;
33862;SDS011;20158;51.436;-2.742;2024-03-06T07:36:18;13.50;;;6.10;;
33862;SDS011;20158;51.436;-2.742;2024-03-06T07:39:03;11.82;;;5.95;;
33862;SDS011;20158;51.436;-2.742;2024-03-06T07:41:49;17.35;;;5.60;;
33862;SDS011;20158;51.436;-2.742;2024-03-06T07:44:34;13.40;;;5.75;;
33862;SDS011;20158;51.436;-2.742;2024-03-06T07:47:19;13.35;;;5.85;;
33862;SDS011;20158;51.436;-2.742;2024-03-06T07:50:05;12.50;;;6.68;;
33862;SDS011;20158;51.436;-2.742;2024-03-06T07:52:54;8.55;;;5.05;;
33862;SDS011;20158;51.436;-2.742;2024-03-06T07:55:39;10.95;;;5.80;;
33862;SDS011;20158;51.436;-2.742;2024-03-06T07:58:24;8.52;;;5.55;;
33862;SDS011;20158;51.436;-2.742;2024-03-06T08:01:09;8.68;;;5.82;;
33862;SDS011;20158;51.436;-2.742;2024-03-06T08:03:54;10.15;;;6.43;;
33862;SDS011;20158;51.436;-2.742;2024-03-06T08:06:39;10.35;;;5.60;;
33862;SDS011;20158;51.436;-2.742;2024-03-06T08:09:23;9.05;;;5.97;;
33862;SDS011;20158;51.436;-2.742;2024-03-06T08:12:12;10.65;;;7.25;;
33862;SDS011;20158;51.436;-2.742;2024-03-06T08:14:56;9.10;;;5.15;;
33862;SDS011;20158;51.436;-2.742;2024-03-06T08:17:42;14.20;;;5.68;;
33862;SDS011;20158;51.436;-2.742;2024-03-06T08:20:27;10.07;;;6.00;;
33862;SDS011;20158;51.436;-2.742;2024-03-06T08:23:12;8.07;;;5.90;;
33862;SDS011;20158;51.436;-2.742;2024-03-06T08:25:56;9.73;;;5.90;;
33862;SDS011;20158;51.436;-2.742;2024-03-06T08:28:41;10.77;;;5.40;;
33862;SDS011;20158;51.436;-2.742;2024-03-06T08:31:26;8.95;;;6.22;;
33862;SDS011;20158;51.436;-2.742;2024-03-06T08:34:10;7.70;;;5.88;;
33862;SDS011;20158;51.436;-2.742;2024-03-06T08:36:54;8.32;;;5.43;;
33862;SDS011;20158;51.436;-2.742;2024-03-06T08:39:39;6.47;;;5.50;;
33862;SDS011;20158;51.436;-2.742;2024-03-06T08:42:23;8.27;;;5.80;;
33862;SDS011;20158;51.436;-2.742;2024-03-06T08:45:08;10.27;;;6.72;;
33862;SDS011;20158;51.436;-2.742;2024-03-06T08:47:52;11.60;;;6.93;;
33862;SDS011;20158;51.436;-2.742;2024-03-06T08:50:38;9.52;;;5.22;;
33862;SDS011;20158;51.436;-2.742;2024-03-06T08:53:22;9.82;;;5.72;;
33862;SDS011;20158;51.436;-2.742;2024-03-06T08:56:07;9.05;;;5.75;;
33862;SDS011;20158;51.436;-2.742;2024-03-06T08:58:52;10.40;;;6.53;;
33862;SDS011;20158;51.436;-2.742;2024-03-06T09:01:37;8.45;;;5.15;;
33862;SDS011;20158;51.436;-2.742;2024-03-06T09:04:22;6.57;;;4.78;;
33862;SDS011;20158;51.436;-2.742;2024-03-06T09:07:07;11.30;;;5.95;;
33862;SDS011;20158;51.436;-2.742;2024-03-06T09:09:51;8.80;;;5.45;;
33862;SDS011;20158;51.436;-2.742;2024-03-06T09:12:36;8.55;;;6.53;;
33862;SDS011;20158;51.436;-2.742;2024-03-06T09:15:21;12.55;;;5.95;;
33862;SDS011;20158;51.436;-2.742;2024-03-06T09:18:06;9.82;;;5.82;;
33862;SDS011;20158;51.436;-2.742;2024-03-06T09:20:50;11.27;;;6.05;;
33862;SDS011;20158;51.436;-2.742;2024-03-06T09:23:35;7.93;;;4.85;;
33862;SDS011;20158;51.436;-2.742;2024-03-06T09:26:21;9.40;;;6.32;;
33862;SDS011;20158;51.436;-2.742;2024-03-06T09:29:05;11.98;;;5.88;;
33862;SDS011;20158;51.436;-2.742;2024-03-06T09:31:50;8.50;;;5.18;;
33862;SDS011;20158;51.436;-2.742;2024-03-06T09:34:35;8.27;;;5.05;;
33862;SDS011;20158;51.436;-2.742;2024-03-06T09:37:20;9.35;;;5.60;;
33862;SDS011;20158;51.436;-2.742;2024-03-06T09:40:05;11.18;;;6.03;;
33862;SDS011;20158;51.436;-2.742;2024-03-06T09:42:51;8.93;;;5.45;;
33862;SDS011;20158;51.436;-2.742;2024-03-06T09:45:36;10.43;;;5.35;;
33862;SDS011;20158;51.436;-2.742;2024-03-06T09:48:21;9.38;;;5.50;;
33862;SDS011;20158;51.436;-2.742;2024-03-06T09:51:06;9.55;;;5.78;;
33862;SDS011;20158;51.436;-2.742;2024-03-06T09:53:51;10.93;;;5.43;;
33862;SDS011;20158;51.436;-2.742;2024-03-06T09:56:37;9.45;;;5.35;;
33862;SDS011;20158;51.436;-2.742;2024-03-06T09:59:22;8.65;;;5.30;;
33862;SDS011;20158;51.436;-2.742;2024-03-06T10:02:08;10.10;;;5.10;;
33862;SDS011;20158;51.436;-2.742;2024-03-06T10:05:02;13.43;;;6.25;;
33862;SDS011;20158;51.436;-2.742;2024-03-06T10:07:50;9.98;;;5.68;;
33862;SDS011;20158;51.436;-2.742;2024-03-06T10:10:35;9.63;;;5.75;;
33862;SDS011;20158;51.436;-2.742;2024-03-06T10:13:24;8.85;;;5.55;;
33862;SDS011;20158;51.436;-2.742;2024-03-06T10:16:08;11.60;;;6.20;;
33862;SDS011;20158;51.436;-2.742;2024-03-06T10:18:55;9.57;;;5.00;;
33862;SDS011;20158;51.436;-2.742;2024-03-06T10:21:40;10.30;;;6.47;;
33862;SDS011;20158;51.436;-2.742;2024-03-06T10:24:25;9.43;;;5.03;;
33862;SDS011;20158;51.436;-2.742;2024-03-06T10:27:16;9.20;;;5.50;;
33862;SDS011;20158;51.436;-2.742;2024-03-06T10:30:04;8.65;;;4.68;;
33862;SDS011;20158;51.436;-2.742;2024-03-06T10:35:39;10.45;;;5.50;;
33862;SDS011;20158;51.436;-2.742;2024-03-06T10:38:27;10.23;;;5.10;;
33862;SDS011;20158;51.436;-2.742;2024-03-06T10:41:18;9.90;;;4.90;;
33862;SDS011;20158;51.436;-2.742;2024-03-06T10:44:10;11.77;;;5.93;;
33862;SDS011;20158;51.436;-2.742;2024-03-06T10:47:03;9.55;;;5.60;;
33862;SDS011;20158;51.436;-2.742;2024-03-06T10:49:49;8.15;;;5.10;;
33862;SDS011;20158;51.436;-2.742;2024-03-06T10:52:35;8.77;;;5.53;;
33862;SDS011;20158;51.436;-2.742;2024-03-06T10:55:22;8.57;;;5.85;;
33862;SDS011;20158;51.436;-2.742;2024-03-06T10:58:07;8.40;;;5.22;;
33862;SDS011;20158;51.436;-2.742;2024-03-06T11:00:52;9.27;;;5.75;;
33862;SDS011;20158;51.436;-2.742;2024-03-06T11:03:39;8.23;;;5.25;;
33862;SDS011;20158;51.436;-2.742;2024-03-06T11:06:24;7.57;;;5.18;;
33862;SDS011;20158;51.436;-2.742;2024-03-06T11:09:09;10.45;;;5.18;;
33862;SDS011;20158;51.436;-2.742;2024-03-06T11:11:58;6.18;;;5.07;;
33862;SDS011;20158;51.436;-2.742;2024-03-06T11:14:43;8.90;;;5.40;;
33862;SDS011;20158;51.436;-2.742;2024-03-06T11:17:28;11.73;;;5.13;;
33862;SDS011;20158;51.436;-2.742;2024-03-06T11:20:19;10.07;;;5.40;;
33862;SDS011;20158;51.436;-2.742;2024-03-06T11:23:03;9.75;;;5.38;;
33862;SDS011;20158;51.436;-2.742;2024-03-06T11:25:55;9.85;;;6.00;;
33862;SDS011;20158;51.436;-2.742;2024-03-06T11:28:43;6.18;;;4.90;;
33862;SDS011;20158;51.436;-2.742;2024-03-06T11:31:34;10.82;;;5.60;;
33862;SDS011;20158;51.436;-2.742;2024-03-06T11:34:19;10.00;;;5.85;;
33862;SDS011;20158;51.436;-2.742;2024-03-06T11:37:06;10.50;;;5.88;;
33862;SDS011;20158;51.436;-2.742;2024-03-06T11:40:00;11.85;;;5.90;;
33862;SDS011;20158;51.436;-2.742;2024-03-06T11:42:46;7.73;;;5.13;;
33862;SDS011;20158;51.436;-2.742;2024-03-06T11:45:33;8.25;;;4.95;;
33862;SDS011;20158;51.436;-2.742;2024-03-06T11:48:28;9.50;;;4.82;;
33862;SDS011;20158;51.436;-2.742;2024-03-06T11:51:12;8.85;;;4.78;;
33862;SDS011;20158;51.436;-2.742;2024-03-06T11:53:57;9.23;;;5.70;;
33862;SDS011;20158;51.436;-2.742;2024-03-06T11:56:45;9.95;;;4.55;;
33862;SDS011;20158;51.436;-2.742;2024-03-06T11:59:35;7.93;;;4.43;;
33862;SDS011;20158;51.436;-2.742;2024-03-06T12:02:22;10.32;;;5.10;;
33862;SDS011;20158;51.436;-2.742;2024-03-06T12:05:07;8.45;;;4.68;;
33862;SDS011;20158;51.436;-2.742;2024-03-06T12:07:54;9.80;;;5.00;;
33862;SDS011;20158;51.436;-2.742;2024-03-06T12:10:38;9.57;;;4.93;;
33862;SDS011;20158;51.436;-2.742;2024-03-06T12:13:23;9.90;;;4.15;;
33862;SDS011;20158;51.436;-2.742;2024-03-06T12:16:08;7.53;;;4.65;;
33862;SDS011;20158;51.436;-2.742;2024-03-06T12:18:54;8.05;;;4.78;;
33862;SDS011;20158;51.436;-2.742;2024-03-06T12:21:43;8.25;;;4.03;;
33862;SDS011;20158;51.436;-2.742;2024-03-06T12:24:33;7.70;;;4.18;;
33862;SDS011;20158;51.436;-2.742;2024-03-06T12:27:22;11.40;;;4.32;;
33862;SDS011;20158;51.436;-2.742;2024-03-06T12:30:09;8.18;;;3.97;;
33862;SDS011;20158;51.436;-2.742;2024-03-06T12:32:58;7.72;;;4.13;;
33862;SDS011;20158;51.436;-2.742;2024-03-06T12:35:43;8.05;;;3.53;;
33862;SDS011;20158;51.436;-2.742;2024-03-06T12:38:28;6.97;;;3.63;;
33862;SDS011;20158;51.436;-2.742;2024-03-06T12:41:13;7.45;;;3.60;;
33862;SDS011;20158;51.436;-2.742;2024-03-06T12:43:58;8.00;;;3.53;;
33862;SDS011;20158;51.436;-2.742;2024-03-06T12:46:42;9.00;;;4.68;;
33862;SDS011;20158;51.436;-2.742;2024-03-06T12:49:28;8.38;;;4.38;;
33862;SDS011;20158;51.436;-2.742;2024-03-06T12:52:12;7.22;;;4.00;;
33862;SDS011;20158;51.436;-2.742;2024-03-06T12:54:57;6.60;;;3.63;;
33862;SDS011;20158;51.436;-2.742;2024-03-06T12:57:42;7.93;;;3.33;;
33862;SDS011;20158;51.436;-2.742;2024-03-06T13:00:27;6.13;;;3.33;;
33862;SDS011;20158;51.436;-2.742;2024-03-06T13:03:12;6.35;;;3.85;;
33862;SDS011;20158;51.436;-2.742;2024-03-06T13:05:56;5.55;;;3.03;;
33862;SDS011;20158;51.436;-2.742;2024-03-06T13:08:40;6.90;;;3.30;;
33862;SDS011;20158;51.436;-2.742;2024-03-06T13:11:25;5.50;;;3.42;;
33862;SDS011;20158;51.436;-2.742;2024-03-06T13:14:09;7.15;;;3.30;;
33862;SDS011;20158;51.436;-2.742;2024-03-06T13:16:55;7.03;;;3.35;;
33862;SDS011;20158;51.436;-2.742;2024-03-06T13:19:39;4.80;;;2.78;;
33862;SDS011;20158;51.436;-2.742;2024-03-06T13:22:24;5.82;;;2.90;;
33862;SDS011;20158;51.436;-2.742;2024-03-06T13:25:09;6.72;;;3.10;;
33862;SDS011;20158;51.436;-2.742;2024-03-06T13:27:53;3.75;;;2.33;;
33862;SDS011;20158;51.436;-2.742;2024-03-06T13:30:38;3.80;;;2.63;;
33862;SDS011;20158;51.436;-2.742;2024-03-06T13:33:23;6.93;;;2.75;;
33862;SDS011;20158;51.436;-2.742;2024-03-06T13:36:10;5.50;;;2.55;;
33862;SDS011;20158;51.436;-2.742;2024-03-06T13:38:54;6.50;;;2.85;;
33862;SDS011;20158;51.436;-2.742;2024-03-06T13:41:39;6.57;;;2.85;;
33862;SDS011;20158;51.436;-2.742;2024-03-06T13:44:24;4.32;;;2.35;;
33862;SDS011;20158;51.436;-2.742;2024-03-06T13:47:14;4.03;;;2.08;;
33862;SDS011;20158;51.436;-2.742;2024-03-06T13:50:01;8.02;;;2.60;;
33862;SDS011;20158;51.436;-2.742;2024-03-06T13:52:50;5.85;;;1.88;;
33862;SDS011;20158;51.436;-2.742;2024-03-06T13:55:34;6.70;;;1.90;;
33862;SDS011;20158;51.436;-2.742;2024-03-06T13:58:19;5.43;;;2.22;;
33862;SDS011;20158;51.436;-2.742;2024-03-06T14:01:04;3.28;;;1.90;;
33862;SDS011;20158;51.436;-2.742;2024-03-06T14:03:49;5.28;;;2.17;;
33862;SDS011;20158;51.436;-2.742;2024-03-06T14:06:34;6.22;;;2.28;;
33862;SDS011;20158;51.436;-2.742;2024-03-06T14:09:18;3.63;;;1.65;;
33862;SDS011;20158;51.436;-2.742;2024-03-06T14:12:03;3.85;;;1.67;;
33862;SDS011;20158;51.436;-2.742;2024-03-06T14:14:49;7.00;;;1.98;;
33862;SDS011;20158;51.436;-2.742;2024-03-06T14:17:34;2.50;;;1.35;;
33862;SDS011;20158;51.436;-2.742;2024-03-06T14:20:18;2.58;;;1.38;;
33862;SDS011;20158;51.436;-2.742;2024-03-06T14:23:02;6.18;;;2.03;;
33862;SDS011;20158;51.436;-2.742;2024-03-06T14:25:47;7.10;;;2.20;;
33862;SDS011;20158;51.436;-2.742;2024-03-06T14:28:32;2.47;;;1.20;;
33862;SDS011;20158;51.436;-2.742;2024-03-06T14:31:16;2.72;;;1.40;;
33862;SDS011;20158;51.436;-2.742;2024-03-06T14:34:01;3.85;;;1.88;;
33862;SDS011;20158;51.436;-2.742;2024-03-06T14:36:46;2.92;;;1.33;;
33862;SDS011;20158;51.436;-2.742;2024-03-06T14:39:30;5.20;;;1.60;;
33862;SDS011;20158;51.436;-2.742;2024-03-06T14:42:15;4.88;;;1.50;;
33862;SDS011;20158;51.436;-2.742;2024-03-06T14:44:59;5.30;;;2.22;;
33862;SDS011;20158;51.436;-2.742;2024-03-06T14:47:44;5.03;;;1.40;;
33862;SDS011;20158;51.436;-2.742;2024-03-06T14:50:28;4.30;;;1.60;;
33862;SDS011;20158;51.436;-2.742;2024-03-06T14:53:13;3.15;;;1.40;;
33862;SDS011;20158;51.436;-2.742;2024-03-06T14:55:58;3.30;;;1.38;;
33862;SDS011;20158;51.436;-2.742;2024-03-06T14:58:42;5.07;;;1.83;;
33862;SDS011;20158;51.436;-2.742;2024-03-06T15:01:27;4.55;;;1.55;;
33862;SDS011;20158;51.436;-2.742;2024-03-06T15:04:11;4.93;;;1.67;;
33862;SDS011;20158;51.436;-2.742;2024-03-06T15:06:56;2.65;;;1.40;;
33862;SDS011;20158;51.436;-2.742;2024-03-06T15:09:40;3.22;;;1.20;;
33862;SDS011;20158;51.436;-2.742;2024-03-06T15:12:24;4.45;;;1.73;;
33862;SDS011;20158;51.436;-2.742;2024-03-06T15:15:09;4.88;;;1.50;;
33862;SDS011;20158;51.436;-2.742;2024-03-06T15:17:53;3.20;;;1.10;;
33862;SDS011;20158;51.436;-2.742;2024-03-06T15:20:38;2.95;;;1.40;;
33862;SDS011;20158;51.436;-2.742;2024-03-06T15:23:24;3.28;;;1.30;;
33862;SDS011;20158;51.436;-2.742;2024-03-06T15:26:08;1.58;;;0.88;;
33862;SDS011;20158;51.436;-2.742;2024-03-06T15:28:53;3.85;;;1.85;;
33862;SDS011;20158;51.436;-2.742;2024-03-06T15:31:38;3.78;;;1.05;;
33862;SDS011;20158;51.436;-2.742;2024-03-06T15:34:25;3.47;;;1.38;;
33862;SDS011;20158;51.436;-2.742;2024-03-06T15:37:10;2.95;;;1.02;;
33862;SDS011;20158;51.436;-2.742;2024-03-06T15:39:55;2.75;;;1.30;;
33862;SDS011;20158;51.436;-2.742;2024-03-06T15:42:39;2.45;;;1.13;;
33862;SDS011;20158;51.436;-2.742;2024-03-06T15:45:24;4.00;;;1.35;;
33862;SDS011;20158;51.436;-2.742;2024-03-06T15:48:09;2.85;;;1.20;;
33862;SDS011;20158;51.436;-2.742;2024-03-06T15:51:00;3.80;;;1.23;;
33862;SDS011;20158;51.436;-2.742;2024-03-06T15:53:44;3.22;;;1.10;;
33862;SDS011;20158;51.436;-2.742;2024-03-06T15:56:29;3.20;;;1.27;;
33862;SDS011;20158;51.436;-2.742;2024-03-06T15:59:13;4.38;;;1.42;;
33862;SDS011;20158;51.436;-2.742;2024-03-06T16:01:58;2.72;;;1.20;;
33862;SDS011;20158;51.436;-2.742;2024-03-06T16:04:42;3.25;;;1.30;;
33862;SDS011;20158;51.436;-2.742;2024-03-06T16:07:27;3.95;;;1.10;;
33862;SDS011;20158;51.436;-2.742;2024-03-06T16:10:11;2.92;;;1.17;;
33862;SDS011;20158;51.436;-2.742;2024-03-06T16:12:56;3.05;;;1.08;;
33862;SDS011;20158;51.436;-2.742;2024-03-06T16:15:41;6.20;;;1.67;;
33862;SDS011;20158;51.436;-2.742;2024-03-06T16:18:25;2.67;;;0.80;;